createdAt,value
2017-12-27T00:02:37.568Z,3.90
2017-12-27T00:05:12.006Z,3.30
2017-12-27T00:07:45.744Z,3.70
2017-12-27T00:10:19.702Z,3.53
2017-12-27T00:12:54.165Z,3.87
2017-12-27T00:15:27.890Z,3.60
2017-12-27T00:18:01.758Z,3.80
2017-12-27T00:20:36.256Z,3.63
2017-12-27T00:26:20.188Z,4.30
2017-12-27T00:31:54.637Z,4.90
2017-12-27T00:34:22.955Z,3.83
2017-12-27T00:36:51.263Z,4.07
2017-12-27T00:39:19.600Z,4.13
2017-12-27T00:41:47.996Z,5.60
2017-12-27T00:44:16.304Z,4.20
2017-12-27T00:46:45.364Z,4.40
2017-12-27T00:49:13.666Z,4.83
2017-12-27T00:51:42.754Z,3.63
2017-12-27T00:54:11.087Z,4.67
2017-12-27T00:56:40.253Z,4.53
2017-12-27T00:59:08.559Z,4.43
2017-12-27T01:01:36.862Z,4.33
2017-12-27T01:04:05.172Z,4.20
2017-12-27T01:06:33.494Z,3.87
2017-12-27T01:09:01.804Z,3.40
2017-12-27T01:11:30.102Z,3.70
2017-12-27T01:13:58.428Z,3.47
2017-12-27T01:16:27.514Z,3.63
2017-12-27T01:18:56.596Z,3.60
2017-12-27T01:21:24.915Z,3.70
2017-12-27T01:23:53.750Z,3.50
2017-12-27T01:26:22.064Z,2.50
2017-12-27T01:28:51.166Z,2.67
2017-12-27T01:31:19.534Z,2.87
2017-12-27T01:33:47.886Z,3.63
2017-12-27T01:36:17.372Z,2.60
2017-12-27T01:38:45.752Z,2.57
2017-12-27T01:41:14.086Z,2.73
2017-12-27T01:43:42.596Z,2.80
2017-12-27T01:46:11.152Z,3.40
2017-12-27T01:48:40.380Z,2.40
2017-12-27T01:51:09.033Z,2.30
2017-12-27T01:53:37.339Z,2.87
2017-12-27T01:56:06.682Z,3.37
2017-12-27T01:58:35.010Z,3.13
2017-12-27T02:01:03.315Z,2.60
2017-12-27T02:03:32.506Z,3.27
2017-12-27T02:06:01.640Z,2.60
2017-12-27T02:08:29.982Z,3.30
2017-12-27T02:10:58.368Z,2.80
2017-12-27T02:13:27.670Z,2.60
2017-12-27T02:15:55.986Z,2.50
2017-12-27T02:18:24.344Z,2.77
2017-12-27T02:20:52.672Z,2.57
2017-12-27T02:23:20.971Z,2.60
2017-12-27T02:25:50.078Z,3.10
2017-12-27T02:28:18.420Z,3.10
2017-12-27T02:30:46.979Z,3.20
2017-12-27T02:33:16.171Z,2.80
2017-12-27T02:35:45.348Z,3.70
2017-12-27T02:38:13.696Z,2.63
2017-12-27T02:40:41.997Z,3.70
2017-12-27T02:43:10.344Z,2.53
2017-12-27T02:45:38.662Z,2.53
2017-12-27T02:48:07.129Z,3.10
2017-12-27T02:50:35.430Z,2.80
2017-12-27T02:53:04.027Z,2.43
2017-12-27T02:55:32.363Z,3.53
2017-12-27T02:58:00.686Z,3.47
2017-12-27T03:00:29.042Z,3.23
2017-12-27T03:02:58.108Z,3.17
2017-12-27T03:05:26.498Z,2.93
2017-12-27T03:07:54.816Z,3.07
2017-12-27T03:10:23.138Z,2.83
2017-12-27T03:12:52.207Z,2.60
2017-12-27T03:15:20.560Z,2.77
2017-12-27T03:17:48.910Z,3.20
2017-12-27T03:20:17.238Z,3.40
2017-12-27T03:22:45.563Z,2.83
2017-12-27T03:25:14.720Z,3.00
2017-12-27T03:27:43.872Z,2.30
2017-12-27T03:30:12.186Z,3.20
2017-12-27T03:32:40.513Z,3.23
2017-12-27T03:35:09.614Z,2.80
2017-12-27T03:37:38.672Z,2.40
2017-12-27T03:40:07.018Z,3.20
2017-12-27T03:42:35.358Z,3.37
2017-12-27T03:45:03.706Z,2.97
2017-12-27T03:47:32.185Z,3.20
2017-12-27T03:50:00.510Z,2.80
2017-12-27T03:52:28.834Z,3.00
2017-12-27T03:54:57.150Z,3.10
2017-12-27T03:57:25.599Z,2.70
2017-12-27T03:59:53.922Z,2.80
2017-12-27T04:02:22.231Z,2.73
2017-12-27T04:04:51.298Z,3.10
2017-12-27T04:07:19.646Z,3.57
2017-12-27T04:09:47.953Z,3.50
2017-12-27T04:12:16.274Z,3.20
2017-12-27T04:14:45.345Z,3.10
2017-12-27T04:17:14.436Z,3.33
2017-12-27T04:19:42.735Z,2.93
2017-12-27T04:22:11.054Z,3.13
2017-12-27T04:24:39.350Z,3.17
2017-12-27T04:27:07.663Z,4.00
2017-12-27T04:29:35.992Z,3.73
2017-12-27T04:32:04.310Z,4.00
2017-12-27T04:34:32.602Z,3.90
2017-12-27T04:37:00.894Z,3.90
2017-12-27T04:39:29.199Z,4.13
2017-12-27T04:41:57.490Z,3.97
2017-12-27T04:44:25.811Z,4.40
2017-12-27T04:46:54.129Z,4.10
2017-12-27T04:49:23.264Z,4.07
2017-12-27T04:51:51.545Z,4.70
2017-12-27T04:54:19.848Z,3.90
2017-12-27T04:56:48.209Z,3.70
2017-12-27T04:59:16.517Z,3.80
2017-12-27T05:01:44.831Z,4.60
2017-12-27T05:04:13.900Z,4.20
2017-12-27T05:06:42.232Z,3.90
2017-12-27T05:09:10.542Z,4.13
2017-12-27T05:11:38.876Z,4.40
2017-12-27T05:14:07.945Z,4.13
2017-12-27T05:16:36.242Z,4.93
2017-12-27T05:19:05.309Z,4.30
2017-12-27T05:21:33.717Z,4.90
2017-12-27T05:24:02.031Z,4.87
2017-12-27T05:26:30.343Z,4.80
2017-12-27T05:28:58.672Z,4.23
2017-12-27T05:31:27.735Z,4.20
2017-12-27T05:33:56.075Z,3.50
2017-12-27T05:36:24.377Z,3.67
2017-12-27T05:38:52.665Z,3.57
2017-12-27T05:41:20.966Z,4.43
2017-12-27T05:43:49.275Z,4.47
2017-12-27T05:46:18.383Z,3.97
2017-12-27T05:48:46.681Z,4.30
2017-12-27T05:51:15.015Z,3.93
2017-12-27T05:53:43.339Z,4.33
2017-12-27T05:56:11.651Z,3.80
2017-12-27T05:58:40.025Z,3.50
2017-12-27T06:01:08.309Z,3.30
2017-12-27T06:03:36.635Z,4.30
2017-12-27T06:06:05.805Z,2.83
2017-12-27T06:08:34.105Z,3.37
2017-12-27T06:11:03.199Z,3.80
2017-12-27T06:13:31.529Z,3.53
2017-12-27T06:15:59.843Z,3.97
2017-12-27T06:18:28.155Z,2.83
2017-12-27T06:20:57.254Z,3.70
2017-12-27T06:23:26.333Z,2.50
2017-12-27T06:25:54.675Z,2.53
2017-12-27T06:28:23.071Z,2.30
2017-12-27T06:30:51.390Z,2.83
2017-12-27T06:33:20.559Z,3.50
2017-12-27T06:35:48.883Z,3.00
2017-12-27T06:38:17.999Z,2.43
2017-12-27T06:40:46.301Z,2.37
2017-12-27T06:43:14.597Z,3.03
2017-12-27T06:45:42.899Z,2.30
2017-12-27T06:48:11.275Z,2.60
2017-12-27T06:50:39.601Z,2.77
2017-12-27T06:53:07.932Z,2.40
2017-12-27T06:55:36.233Z,2.50
2017-12-27T06:58:05.294Z,2.83
2017-12-27T07:00:34.367Z,3.10
2017-12-27T07:03:02.687Z,2.77
2017-12-27T07:05:31.003Z,2.60
2017-12-27T07:08:00.098Z,3.00
2017-12-27T07:10:29.308Z,3.10
2017-12-27T07:12:58.391Z,3.40
2017-12-27T07:15:27.476Z,2.90
2017-12-27T07:17:55.775Z,3.17
2017-12-27T07:20:24.859Z,3.40
2017-12-27T07:22:53.185Z,4.30
2017-12-27T07:25:21.494Z,3.27
2017-12-27T07:27:49.792Z,3.80
2017-12-27T07:30:18.095Z,4.17
2017-12-27T07:32:47.341Z,3.30
2017-12-27T07:35:15.655Z,3.77
2017-12-27T07:37:43.965Z,3.80
2017-12-27T07:40:13.027Z,3.73
2017-12-27T07:42:41.331Z,3.70
2017-12-27T07:45:11.185Z,3.50
2017-12-27T07:47:39.487Z,3.60
2017-12-27T07:50:08.547Z,3.90
2017-12-27T07:52:36.850Z,3.63
2017-12-27T07:55:05.143Z,4.00
2017-12-27T07:57:33.440Z,3.57
2017-12-27T08:00:01.728Z,3.67
2017-12-27T08:02:30.019Z,4.23
2017-12-27T08:04:59.102Z,3.77
2017-12-27T08:07:27.429Z,4.80
2017-12-27T08:09:55.736Z,4.50
2017-12-27T08:12:24.057Z,4.87
2017-12-27T08:14:52.440Z,4.83
2017-12-27T08:17:20.841Z,5.30
2017-12-27T08:19:49.931Z,4.70
2017-12-27T08:22:19.031Z,5.17
2017-12-27T08:24:48.091Z,4.73
2017-12-27T08:27:16.424Z,5.40
2017-12-27T08:29:44.735Z,5.60
2017-12-27T08:32:13.114Z,5.20
2017-12-27T08:34:41.451Z,5.80
2017-12-27T08:37:10.529Z,6.40
2017-12-27T08:39:38.859Z,6.10
2017-12-27T08:42:07.151Z,7.27
2017-12-27T08:44:35.445Z,7.00
2017-12-27T08:47:03.763Z,8.03
2017-12-27T08:49:32.835Z,7.73
2017-12-27T08:52:01.141Z,8.60
2017-12-27T08:54:29.462Z,7.73
2017-12-27T08:56:57.765Z,8.00
2017-12-27T08:59:26.079Z,8.17
2017-12-27T09:01:54.375Z,8.70
2017-12-27T09:04:23.447Z,7.80
2017-12-27T09:06:51.753Z,8.60
2017-12-27T09:09:20.837Z,8.33
2017-12-27T09:11:49.137Z,9.77
2017-12-27T09:14:18.261Z,8.20
2017-12-27T09:16:46.574Z,8.50
2017-12-27T09:19:14.899Z,10.23
2017-12-27T09:21:43.987Z,9.40
2017-12-27T09:24:12.287Z,9.30
2017-12-27T09:26:40.606Z,10.23
2017-12-27T09:29:08.935Z,10.97
2017-12-27T09:31:38.019Z,10.70
2017-12-27T09:34:06.338Z,11.50
2017-12-27T09:36:34.659Z,10.80
2017-12-27T09:39:02.971Z,12.27
2017-12-27T09:41:31.284Z,10.37
2017-12-27T09:43:59.593Z,10.60
2017-12-27T09:46:27.912Z,12.10
2017-12-27T09:48:56.241Z,12.07
2017-12-27T09:51:24.617Z,11.43
2017-12-27T09:53:53.101Z,11.80
2017-12-27T09:56:21.400Z,11.20
2017-12-27T09:58:49.697Z,11.70
2017-12-27T10:01:18.005Z,12.57
2017-12-27T10:03:47.089Z,12.40
2017-12-27T10:06:15.384Z,11.30
2017-12-27T10:08:44.517Z,11.50
2017-12-27T10:11:12.831Z,10.83
2017-12-27T10:13:41.920Z,11.53
2017-12-27T10:16:10.272Z,11.53
2017-12-27T10:18:38.593Z,12.77
2017-12-27T10:21:07.148Z,11.63
2017-12-27T10:23:35.468Z,11.67
2017-12-27T10:26:03.812Z,10.90
2017-12-27T10:28:32.132Z,11.50
2017-12-27T10:31:00.436Z,11.20
2017-12-27T10:33:29.527Z,11.90
2017-12-27T10:35:57.846Z,10.70
2017-12-27T10:38:26.169Z,13.23
2017-12-27T10:40:55.268Z,12.73
2017-12-27T10:43:23.607Z,14.13
2017-12-27T10:45:51.909Z,11.90
2017-12-27T10:48:20.238Z,11.50
2017-12-27T10:50:49.324Z,12.33
2017-12-27T10:53:17.683Z,12.33
2017-12-27T10:55:46.000Z,12.20
2017-12-27T10:58:15.068Z,12.23
2017-12-27T11:00:43.400Z,12.90
2017-12-27T11:03:11.718Z,13.00
2017-12-27T11:05:40.091Z,12.60
2017-12-27T11:08:08.419Z,13.57
2017-12-27T11:10:36.730Z,12.40
2017-12-27T11:13:05.087Z,12.07
2017-12-27T11:15:34.158Z,14.27
2017-12-27T11:18:02.472Z,13.00
2017-12-27T11:20:31.578Z,13.40
2017-12-27T11:23:00.642Z,14.10
2017-12-27T11:25:28.996Z,15.23
2017-12-27T11:27:57.310Z,15.40
2017-12-27T11:30:25.634Z,14.17
2017-12-27T11:32:53.955Z,14.00
2017-12-27T11:35:22.302Z,15.33
2017-12-27T11:37:51.482Z,16.60
2017-12-27T11:40:19.880Z,16.00
2017-12-27T11:42:48.190Z,16.40
2017-12-27T11:45:16.532Z,17.63
2017-12-27T11:47:44.838Z,17.03
2017-12-27T11:50:13.158Z,16.77
2017-12-27T11:52:41.546Z,17.80
2017-12-27T11:55:09.837Z,15.30
2017-12-27T11:57:39.172Z,16.03
2017-12-27T12:00:07.492Z,13.80
2017-12-27T12:02:35.806Z,15.50
2017-12-27T12:05:04.910Z,15.00
2017-12-27T12:07:33.242Z,16.13
2017-12-27T12:10:01.558Z,16.73
2017-12-27T12:12:30.633Z,15.13
2017-12-27T12:14:58.934Z,14.73
2017-12-27T12:17:27.242Z,16.77
2017-12-27T12:19:55.556Z,16.37
2017-12-27T12:22:23.878Z,15.37
2017-12-27T12:24:52.176Z,16.30
2017-12-27T12:27:21.280Z,16.43
2017-12-27T12:29:49.602Z,16.57
2017-12-27T12:32:17.918Z,15.73
2017-12-27T12:34:46.210Z,15.73
2017-12-27T12:37:15.280Z,15.40
2017-12-27T12:39:43.594Z,18.20
2017-12-27T12:42:12.730Z,16.27
2017-12-27T12:44:41.040Z,14.97
2017-12-27T12:47:09.380Z,17.50
2017-12-27T12:49:37.705Z,18.47
2017-12-27T12:52:06.036Z,17.73
2017-12-27T12:54:34.328Z,16.70
2017-12-27T12:57:02.630Z,17.93
2017-12-27T12:59:30.946Z,17.73
2017-12-27T13:02:00.024Z,16.30
2017-12-27T13:04:28.394Z,16.70
2017-12-27T13:06:56.724Z,16.30
2017-12-27T13:09:25.782Z,16.17
2017-12-27T13:11:54.093Z,15.10
2017-12-27T13:14:23.163Z,14.70
2017-12-27T13:16:51.478Z,15.50
2017-12-27T13:19:20.547Z,15.00
2017-12-27T13:21:48.847Z,15.70
2017-12-27T13:24:17.918Z,13.70
2017-12-27T13:26:46.242Z,14.03
2017-12-27T13:29:15.312Z,14.40
2017-12-27T13:31:43.640Z,13.60
2017-12-27T13:34:11.952Z,12.70
2017-12-27T13:36:40.277Z,12.13
2017-12-27T13:39:09.362Z,13.50
2017-12-27T13:41:37.683Z,14.20
2017-12-27T13:44:06.492Z,13.90
2017-12-27T13:46:34.808Z,14.00
2017-12-27T13:49:03.113Z,12.30
2017-12-27T13:51:32.336Z,12.40
2017-12-27T13:54:00.655Z,12.80
2017-12-27T13:56:28.957Z,11.77
2017-12-27T13:58:57.262Z,13.70
2017-12-27T14:01:26.317Z,13.40
2017-12-27T14:03:54.641Z,12.50
2017-12-27T14:06:23.874Z,13.60
2017-12-27T14:08:52.173Z,12.47
2017-12-27T14:11:20.967Z,14.87
2017-12-27T14:13:49.284Z,12.73
2017-12-27T14:16:19.318Z,14.13
2017-12-27T14:18:48.404Z,13.43
2017-12-27T14:21:17.525Z,12.53
2017-12-27T14:23:45.842Z,13.13
2017-12-27T14:26:14.226Z,10.67
2017-12-27T14:28:42.562Z,9.63
2017-12-27T14:31:10.880Z,9.70
2017-12-27T14:33:39.212Z,10.40
2017-12-27T14:36:08.326Z,7.60
2017-12-27T14:38:36.660Z,9.00
2017-12-27T14:41:04.979Z,7.87
2017-12-27T14:43:34.075Z,9.40
2017-12-27T14:46:03.261Z,7.33
2017-12-27T14:48:32.355Z,7.13
2017-12-27T14:51:00.667Z,6.90
2017-12-27T14:53:28.965Z,6.17
2017-12-27T14:55:57.263Z,6.47
2017-12-27T14:58:25.571Z,5.63
2017-12-27T15:00:53.882Z,6.67
2017-12-27T15:03:22.167Z,5.60
2017-12-27T15:05:50.475Z,6.00
2017-12-27T15:08:18.783Z,6.03
2017-12-27T15:10:47.144Z,6.40
2017-12-27T15:13:15.504Z,5.20
2017-12-27T15:15:43.812Z,6.40
2017-12-27T15:18:12.107Z,6.23
2017-12-27T15:20:40.435Z,6.13
2017-12-27T15:23:08.741Z,6.00
2017-12-27T15:25:37.050Z,6.80
2017-12-27T15:28:05.361Z,6.03
2017-12-27T15:30:34.441Z,6.13
2017-12-27T15:33:02.751Z,6.13
2017-12-27T15:35:31.077Z,7.33
2017-12-27T15:37:59.530Z,5.93
2017-12-27T15:40:27.845Z,7.80
2017-12-27T15:42:56.195Z,6.33
2017-12-27T15:45:24.539Z,7.10
2017-12-27T15:47:53.649Z,7.50
2017-12-27T15:50:21.945Z,7.00
2017-12-27T15:52:50.243Z,8.33
2017-12-27T15:55:18.556Z,7.70
2017-12-27T15:57:46.872Z,9.17
2017-12-27T16:00:15.942Z,8.53
2017-12-27T16:02:44.279Z,8.20
2017-12-27T16:05:12.595Z,8.40
2017-12-27T16:07:40.943Z,9.40
2017-12-27T16:10:09.255Z,7.70
2017-12-27T16:12:37.584Z,8.90
2017-12-27T16:15:06.663Z,9.07
2017-12-27T16:17:35.736Z,10.40
2017-12-27T16:20:04.066Z,10.80
2017-12-27T16:22:32.389Z,11.40
2017-12-27T16:25:00.866Z,11.87
2017-12-27T16:27:29.208Z,10.40
2017-12-27T16:29:57.573Z,9.57
2017-12-27T16:32:26.663Z,9.23
2017-12-27T16:34:54.991Z,10.37
2017-12-27T16:37:23.330Z,9.10
2017-12-27T16:39:51.645Z,8.27
2017-12-27T16:42:19.970Z,8.20
2017-12-27T16:44:48.277Z,9.07
2017-12-27T16:47:17.361Z,8.33
2017-12-27T16:49:45.672Z,9.10
2017-12-27T16:52:14.747Z,9.47
2017-12-27T16:54:43.071Z,10.13
2017-12-27T16:57:11.378Z,10.87
2017-12-27T16:59:39.704Z,10.73
2017-12-27T17:02:08.799Z,9.80
2017-12-27T17:04:37.924Z,9.37
2017-12-27T17:07:06.243Z,10.43
2017-12-27T17:09:34.553Z,9.63
2017-12-27T17:12:03.696Z,7.60
2017-12-27T17:14:32.037Z,6.53
2017-12-27T17:17:01.109Z,5.80
2017-12-27T17:19:29.489Z,4.40
2017-12-27T17:21:57.791Z,2.97
2017-12-27T17:24:26.104Z,3.43
2017-12-27T17:26:54.431Z,4.20
2017-12-27T17:29:22.739Z,3.10
2017-12-27T17:31:51.809Z,1.80
2017-12-27T17:34:20.131Z,1.60
2017-12-27T17:36:49.197Z,6.70
2017-12-27T17:39:17.497Z,8.40
2017-12-27T17:41:46.593Z,7.17
2017-12-27T17:44:15.731Z,1.83
2017-12-27T17:46:44.084Z,0.77
2017-12-27T17:49:13.154Z,0.80
2017-12-27T17:51:41.445Z,0.80
2017-12-27T17:54:09.761Z,0.50
2017-12-27T17:56:38.085Z,0.90
2017-12-27T17:59:06.385Z,1.50
2017-12-27T18:01:35.469Z,5.03
2017-12-27T18:04:03.776Z,2.80
2017-12-27T18:06:32.873Z,3.57
2017-12-27T18:09:01.978Z,2.53
2017-12-27T18:11:31.073Z,1.50
2017-12-27T18:13:59.429Z,1.07
2017-12-27T18:16:27.753Z,1.20
2017-12-27T18:18:56.109Z,1.30
2017-12-27T18:21:25.177Z,1.00
2017-12-27T18:23:53.483Z,0.80
2017-12-27T18:26:22.637Z,1.20
2017-12-27T18:28:51.024Z,0.70
2017-12-27T18:31:19.411Z,0.70
2017-12-27T18:33:47.740Z,0.77
2017-12-27T18:36:16.060Z,0.87
2017-12-27T18:38:44.357Z,0.70
2017-12-27T18:41:12.658Z,1.57
2017-12-27T18:43:40.970Z,0.80
2017-12-27T18:46:09.289Z,0.97
2017-12-27T18:48:37.600Z,1.20
2017-12-27T18:51:06.897Z,1.53
2017-12-27T18:53:35.707Z,1.27
2017-12-27T18:56:04.593Z,2.13
2017-12-27T18:58:33.727Z,1.17
2017-12-27T19:01:02.033Z,1.17
2017-12-27T19:03:30.356Z,1.77
2017-12-27T19:05:58.774Z,1.53
2017-12-27T19:08:27.083Z,1.23
2017-12-27T19:10:55.525Z,1.10
2017-12-27T19:13:23.885Z,1.30
2017-12-27T19:15:52.952Z,1.40
2017-12-27T19:18:21.389Z,1.20
2017-12-27T19:20:49.717Z,1.27
2017-12-27T19:23:18.045Z,1.37
2017-12-27T19:25:46.345Z,1.40
2017-12-27T19:28:14.647Z,1.10
2017-12-27T19:30:42.960Z,1.30
2017-12-27T19:33:11.346Z,1.80
2017-12-27T19:35:40.436Z,2.13
2017-12-27T19:38:08.738Z,1.53
2017-12-27T19:40:37.969Z,1.13
2017-12-27T19:43:06.373Z,1.10
2017-12-27T19:45:34.686Z,1.60
2017-12-27T19:48:03.764Z,2.20
2017-12-27T19:50:32.092Z,2.90
2017-12-27T19:53:01.232Z,1.70
2017-12-27T19:55:29.529Z,1.57
2017-12-27T19:57:57.846Z,1.67
2017-12-27T20:00:26.923Z,2.27
2017-12-27T20:02:55.295Z,1.90
2017-12-27T20:05:23.627Z,1.67
2017-12-27T20:07:51.937Z,1.30
2017-12-27T20:10:20.344Z,1.20
2017-12-27T20:12:48.662Z,1.70
2017-12-27T20:15:17.725Z,2.97
2017-12-27T20:17:46.063Z,1.20
2017-12-27T20:20:14.403Z,1.80
2017-12-27T20:22:43.507Z,3.50
2017-12-27T20:25:12.588Z,3.20
2017-12-27T20:27:40.887Z,2.00
2017-12-27T20:30:09.964Z,6.57
2017-12-27T20:32:38.724Z,6.50
2017-12-27T20:35:07.069Z,4.83
2017-12-27T20:37:35.364Z,2.40
2017-12-27T20:40:03.708Z,2.60
2017-12-27T20:42:32.798Z,6.53
2017-12-27T20:45:01.152Z,2.07
2017-12-27T20:47:29.544Z,5.77
2017-12-27T20:49:57.859Z,3.23
2017-12-27T20:52:26.176Z,3.80
2017-12-27T20:54:54.502Z,3.90
2017-12-27T20:57:22.805Z,2.00
2017-12-27T20:59:51.887Z,1.93
2017-12-27T21:02:20.188Z,1.50
2017-12-27T21:04:48.559Z,3.63
2017-12-27T21:07:17.674Z,2.30
2017-12-27T21:09:46.029Z,3.43
2017-12-27T21:12:15.105Z,2.23
2017-12-27T21:14:43.552Z,3.03
2017-12-27T21:17:11.868Z,2.47
2017-12-27T21:19:40.220Z,2.53
2017-12-27T21:22:08.551Z,4.90
2017-12-27T21:24:37.624Z,2.83
2017-12-27T21:27:05.996Z,6.27
2017-12-27T21:29:34.354Z,10.83
2017-12-27T21:32:02.681Z,8.87
2017-12-27T21:34:31.226Z,7.70
2017-12-27T21:36:59.588Z,8.37
2017-12-27T21:39:27.962Z,10.23
2017-12-27T21:41:56.493Z,11.30
2017-12-27T21:44:24.832Z,9.50
2017-12-27T21:46:54.036Z,10.23
2017-12-27T21:49:27.826Z,12.23
2017-12-27T21:51:56.904Z,7.77
2017-12-27T21:54:25.294Z,7.50
2017-12-27T21:56:53.664Z,3.60
2017-12-27T21:59:27.538Z,3.50
2017-12-27T22:01:55.906Z,3.60
2017-12-27T22:04:24.238Z,6.13
2017-12-27T22:06:52.722Z,4.50
2017-12-27T22:09:21.062Z,3.23
2017-12-27T22:11:49.442Z,4.10
2017-12-27T22:14:17.752Z,9.20
2017-12-27T22:16:46.055Z,4.13
2017-12-27T22:19:14.345Z,4.63
2017-12-27T22:21:43.424Z,3.23
2017-12-27T22:24:11.752Z,2.87
2017-12-27T22:26:40.070Z,2.53
2017-12-27T22:29:08.366Z,1.27
2017-12-27T22:31:36.671Z,2.50
2017-12-27T22:34:05.752Z,4.07
2017-12-27T22:36:34.062Z,3.67
2017-12-27T22:39:02.380Z,2.33
2017-12-27T22:41:30.712Z,2.27
2017-12-27T22:43:59.781Z,1.80
2017-12-27T22:46:28.092Z,2.53
2017-12-27T22:48:57.178Z,2.40
2017-12-27T22:51:26.285Z,2.30
2017-12-27T22:53:55.357Z,3.17
2017-12-27T22:56:25.193Z,2.90
2017-12-27T22:58:54.263Z,2.83
2017-12-27T23:01:22.556Z,2.30
2017-12-27T23:03:50.878Z,4.03
2017-12-27T23:06:19.197Z,2.90
2017-12-27T23:08:47.514Z,2.30
2017-12-27T23:11:16.596Z,2.60
2017-12-27T23:13:44.891Z,2.10
2017-12-27T23:16:13.190Z,1.90
2017-12-27T23:18:41.504Z,3.60
2017-12-27T23:21:09.803Z,2.20
2017-12-27T23:23:38.108Z,2.63
2017-12-27T23:26:06.388Z,2.30
2017-12-27T23:28:34.698Z,2.70
2017-12-27T23:31:02.995Z,2.60
2017-12-27T23:33:31.276Z,2.13
2017-12-27T23:35:59.572Z,2.13
2017-12-27T23:38:27.866Z,2.10
2017-12-27T23:40:56.210Z,3.10
2017-12-27T23:43:24.523Z,2.80
2017-12-27T23:45:52.835Z,3.50
2017-12-27T23:48:21.125Z,3.00
2017-12-27T23:50:50.200Z,2.70
2017-12-27T23:53:18.579Z,2.03
2017-12-27T23:55:46.882Z,2.93
2017-12-27T23:58:15.969Z,2.63
